createdAt,value
2022-09-16T00:00:51.717Z,100338.56
2022-09-16T00:03:18.822Z,100352.66
2022-09-16T00:05:47.765Z,100345.09
2022-09-16T00:08:15.585Z,100352.88
2022-09-16T00:10:43.616Z,100350.25
2022-09-16T00:13:11.431Z,100348.47
2022-09-16T00:15:41.536Z,100349.25
2022-09-16T00:18:07.896Z,100346.28
2022-09-16T00:20:34.406Z,100358.63
2022-09-16T00:23:00.857Z,100351.78
2022-09-16T00:25:27.397Z,100347.41
2022-09-16T00:27:53.890Z,100348.84
2022-09-16T00:30:21.058Z,100344.59
2022-09-16T00:32:47.424Z,100341.47
2022-09-16T00:35:13.908Z,100338.06
2022-09-16T00:37:40.335Z,100342.56
2022-09-16T00:40:07.090Z,100351.81
2022-09-16T00:42:38.939Z,100358.56
2022-09-16T00:45:16.239Z,100373.56
2022-09-16T00:47:54.004Z,100371.06
2022-09-16T00:50:28.375Z,100368.88
2022-09-16T00:52:56.550Z,100374.41
2022-09-16T00:55:28.189Z,100350.91
2022-09-16T00:57:59.604Z,100351.69
2022-09-16T01:00:27.163Z,100356.94
2022-09-16T01:02:53.664Z,100354.97
2022-09-16T01:05:23.469Z,100349.75
2022-09-16T01:07:51.919Z,100363.53
2022-09-16T01:10:22.501Z,100376.59
2022-09-16T01:12:54.921Z,100368.66
2022-09-16T01:15:31.454Z,100363.69
2022-09-16T01:18:13.214Z,100365.13
2022-09-16T01:20:49.707Z,100361.63
2022-09-16T01:23:51.557Z,100363.63
2022-09-16T01:26:53.011Z,100364.81
2022-09-16T01:29:56.841Z,100357.53
2022-09-16T01:32:34.727Z,100361.78
2022-09-16T01:35:10.274Z,100351.41
2022-09-16T01:38:02.438Z,100362.44
2022-09-16T01:40:41.529Z,100355.16
2022-09-16T01:43:40.218Z,100357.50
2022-09-16T01:46:16.707Z,100355.66
2022-09-16T01:48:57.037Z,100360.25
2022-09-16T01:51:32.038Z,100355.28
2022-09-16T01:54:11.881Z,100350.59
2022-09-16T01:56:53.967Z,100347.81
2022-09-16T01:59:42.468Z,100350.28
2022-09-16T02:02:19.655Z,100340.97
2022-09-16T02:04:51.414Z,100340.88
2022-09-16T02:07:21.600Z,100341.75
2022-09-16T02:10:08.713Z,100340.78
2022-09-16T02:12:39.277Z,100328.50
2022-09-16T02:15:11.348Z,100335.34
2022-09-16T02:17:47.555Z,100333.25
2022-09-16T02:20:19.739Z,100335.78
2022-09-16T02:22:54.817Z,100340.44
2022-09-16T02:25:22.986Z,100329.03
2022-09-16T02:27:52.093Z,100319.97
2022-09-16T02:30:22.023Z,100326.84
2022-09-16T02:32:58.585Z,100330.53
2022-09-16T02:35:27.026Z,100328.56
2022-09-16T02:37:59.770Z,100328.50
2022-09-16T02:40:35.913Z,100337.13
2022-09-16T02:43:03.068Z,100339.78
2022-09-16T02:45:48.551Z,100338.03
2022-09-16T02:48:31.657Z,100324.38
2022-09-16T02:51:10.075Z,100317.84
2022-09-16T02:53:58.333Z,100314.81
2022-09-16T02:56:31.245Z,100329.16
2022-09-16T02:58:58.151Z,100322.16
2022-09-16T03:01:25.986Z,100322.16
2022-09-16T03:03:55.851Z,100322.28
2022-09-16T03:06:25.535Z,100317.53
2022-09-16T03:08:56.196Z,100318.75
2022-09-16T03:11:40.114Z,100317.47
2022-09-16T03:14:18.741Z,100310.28
2022-09-16T03:16:55.135Z,100328.50
2022-09-16T03:19:32.973Z,100316.25
2022-09-16T03:22:05.371Z,100306.47
2022-09-16T03:24:54.570Z,100308.78
2022-09-16T03:27:31.802Z,100314.03
2022-09-16T03:30:08.829Z,100306.00
2022-09-16T03:32:41.303Z,100295.84
2022-09-16T03:35:25.767Z,100301.91
2022-09-16T03:37:58.302Z,100313.41
2022-09-16T03:40:26.743Z,100295.34
2022-09-16T03:42:53.203Z,100301.69
2022-09-16T03:45:22.705Z,100291.28
2022-09-16T03:47:51.762Z,100295.53
2022-09-16T03:50:20.088Z,100290.66
2022-09-16T03:52:47.452Z,100288.31
2022-09-16T03:55:13.923Z,100284.81
2022-09-16T03:57:40.311Z,100293.75
2022-09-16T04:00:08.467Z,100286.91
2022-09-16T04:02:40.549Z,100295.25
2022-09-16T04:05:08.811Z,100305.22
2022-09-16T04:07:35.925Z,100301.53
2022-09-16T04:10:03.154Z,100320.34
2022-09-16T04:12:29.700Z,100315.72
2022-09-16T04:14:56.251Z,100307.78
2022-09-16T04:17:23.221Z,100297.56
2022-09-16T04:19:51.147Z,100290.75
2022-09-16T04:22:17.509Z,100297.13
2022-09-16T04:24:43.927Z,100291.91
2022-09-16T04:27:10.299Z,100287.81
2022-09-16T04:29:36.892Z,100291.06
2022-09-16T04:32:03.493Z,100283.47
2022-09-16T04:34:30.137Z,100291.38
2022-09-16T04:36:56.531Z,100288.44
2022-09-16T04:39:23.045Z,100286.13
2022-09-16T04:41:49.411Z,100280.28
2022-09-16T04:44:16.022Z,100275.19
2022-09-16T04:46:42.474Z,100267.78
2022-09-16T04:49:09.072Z,100271.97
2022-09-16T04:51:35.441Z,100271.09
2022-09-16T04:54:01.924Z,100272.81
2022-09-16T04:56:31.566Z,100279.59
2022-09-16T04:59:03.532Z,100274.94
2022-09-16T05:01:32.514Z,100288.84
2022-09-16T05:04:02.371Z,100287.06
2022-09-16T05:06:35.334Z,100303.25
2022-09-16T05:09:02.756Z,100291.59
2022-09-16T05:11:31.986Z,100292.13
2022-09-16T05:13:59.524Z,100279.66
2022-09-16T05:16:25.928Z,100274.88
2022-09-16T05:18:55.585Z,100268.19
2022-09-16T05:21:24.339Z,100278.22
2022-09-16T05:23:52.513Z,100274.16
2022-09-16T05:26:24.882Z,100277.78
2022-09-16T05:28:52.472Z,100276.25
2022-09-16T05:31:24.414Z,100279.03
2022-09-16T05:34:02.143Z,100279.41
2022-09-16T05:36:31.163Z,100276.50
2022-09-16T05:39:22.265Z,100276.91
2022-09-16T05:41:45.277Z,100274.03
2022-09-16T05:44:12.149Z,100276.00
2022-09-16T05:46:40.633Z,100281.00
2022-09-16T05:49:07.969Z,100274.75
2022-09-16T05:51:34.512Z,100276.16
2022-09-16T05:54:00.908Z,100281.03
2022-09-16T05:56:30.033Z,100275.84
2022-09-16T05:58:59.535Z,100281.16
2022-09-16T06:01:34.636Z,100273.44
2022-09-16T06:04:03.172Z,100264.66
2022-09-16T06:06:34.028Z,100269.44
2022-09-16T06:09:08.036Z,100270.81
2022-09-16T06:11:38.334Z,100266.69
2022-09-16T06:14:06.021Z,100267.34
2022-09-16T06:16:33.067Z,100270.00
2022-09-16T06:19:01.705Z,100277.63
2022-09-16T06:21:29.106Z,100270.16
2022-09-16T06:23:56.671Z,100279.41
2022-09-16T06:26:26.074Z,100270.03
2022-09-16T06:28:53.548Z,100262.94
2022-09-16T06:31:23.435Z,100262.22
2022-09-16T06:33:50.880Z,100257.56
2022-09-16T06:36:23.590Z,100256.84
2022-09-16T06:38:51.229Z,100257.56
2022-09-16T06:41:19.740Z,100251.25
2022-09-16T06:43:47.059Z,100252.91
2022-09-16T06:46:19.866Z,100248.94
2022-09-16T06:48:50.111Z,100243.19
2022-09-16T06:51:22.832Z,100246.34
2022-09-16T06:53:50.206Z,100246.06
2022-09-16T06:56:20.498Z,100239.50
2022-09-16T06:58:49.207Z,100239.44
2022-09-16T07:01:28.086Z,100246.72
2022-09-16T07:03:56.638Z,100242.53
2022-09-16T07:06:38.149Z,100240.25
2022-09-16T07:09:11.279Z,100236.22
2022-09-16T07:11:37.758Z,100240.72
2022-09-16T07:14:04.939Z,100234.53
2022-09-16T07:16:31.460Z,100233.94
2022-09-16T07:19:01.167Z,100231.75
2022-09-16T07:21:30.102Z,100233.22
2022-09-16T07:24:02.509Z,100229.22
2022-09-16T07:26:31.197Z,100246.91
2022-09-16T07:29:00.706Z,100240.41
2022-09-16T07:31:29.428Z,100243.38
2022-09-16T07:34:02.847Z,100235.63
2022-09-16T07:36:33.653Z,100236.44
2022-09-16T07:39:00.572Z,100238.97
2022-09-16T07:41:29.797Z,100237.22
2022-09-16T07:43:59.061Z,100235.13
2022-09-16T07:46:27.761Z,100233.19
2022-09-16T07:48:55.145Z,100235.59
2022-09-16T07:51:24.066Z,100236.84
2022-09-16T07:53:59.458Z,100239.09
2022-09-16T07:56:28.954Z,100235.66
2022-09-16T07:58:56.751Z,100238.69
2022-09-16T08:01:24.060Z,100242.22
2022-09-16T08:03:51.140Z,100248.00
2022-09-16T08:06:20.755Z,100248.31
2022-09-16T08:08:48.192Z,100241.94
2022-09-16T08:11:15.297Z,100234.88
2022-09-16T08:13:43.112Z,100242.34
2022-09-16T08:16:15.057Z,100234.91
2022-09-16T08:18:42.604Z,100233.16
2022-09-16T08:21:23.538Z,100232.38
2022-09-16T08:23:50.552Z,100232.38
2022-09-16T08:26:18.119Z,100226.97
2022-09-16T08:29:07.352Z,100236.06
2022-09-16T08:31:33.249Z,100226.28
2022-09-16T08:33:59.894Z,100237.53
2022-09-16T08:36:26.412Z,100237.78
2022-09-16T08:38:56.133Z,100248.88
2022-09-16T08:41:44.216Z,100249.13
2022-09-16T08:44:35.347Z,100251.66
2022-09-16T08:47:06.320Z,100250.06
2022-09-16T08:49:35.545Z,100249.31
2022-09-16T08:52:10.639Z,100251.41
2022-09-16T08:54:47.866Z,100243.28
2022-09-16T08:57:21.409Z,100241.69
2022-09-16T08:59:59.513Z,100244.53
2022-09-16T09:05:43.390Z,100247.91
2022-09-16T09:08:19.326Z,100244.19
2022-09-16T09:10:52.158Z,100238.22
2022-09-16T09:13:22.198Z,100240.28
2022-09-16T09:16:00.010Z,100244.56
2022-09-16T09:19:03.120Z,100232.28
2022-09-16T09:21:55.499Z,100230.53
2022-09-16T09:24:28.081Z,100229.75
2022-09-16T09:27:01.250Z,100217.06
2022-09-16T09:30:00.872Z,100229.41
2022-09-16T09:32:38.237Z,100222.03
2022-09-16T09:35:49.723Z,100237.06
2022-09-16T09:38:37.539Z,100231.47
2022-09-16T09:41:32.684Z,100222.53
2022-09-16T09:44:26.145Z,100209.78
2022-09-16T09:46:58.004Z,100208.41
2022-09-16T09:49:51.173Z,100204.72
2022-09-16T09:52:23.289Z,100205.97
2022-09-16T09:54:51.533Z,100201.94
2022-09-16T09:57:31.612Z,100207.84
2022-09-16T10:00:11.626Z,100200.78
2022-09-16T10:02:46.238Z,100192.28
2022-09-16T10:05:23.715Z,100182.44
2022-09-16T10:07:57.329Z,100188.09
2022-09-16T10:10:26.672Z,100184.97
2022-09-16T10:12:54.305Z,100187.03
2022-09-16T10:15:38.531Z,100190.81
2022-09-16T10:18:25.105Z,100191.59
2022-09-16T10:21:11.465Z,100186.94
2022-09-16T10:23:39.158Z,100169.72
2022-09-16T10:26:27.577Z,100169.94
2022-09-16T10:29:03.442Z,100157.50
2022-09-16T10:31:35.636Z,100153.41
2022-09-16T10:34:04.515Z,100143.44
2022-09-16T10:36:34.609Z,100162.06
2022-09-16T10:39:05.263Z,100146.19
2022-09-16T10:41:42.326Z,100135.38
2022-09-16T10:44:28.285Z,100134.56
2022-09-16T10:47:01.409Z,100130.31
2022-09-16T10:49:38.760Z,100123.53
2022-09-16T10:52:17.516Z,100121.03
2022-09-16T10:54:44.891Z,100117.97
2022-09-16T10:57:31.177Z,100113.41
2022-09-16T11:00:14.536Z,100100.06
2022-09-16T11:03:28.269Z,100105.59
2022-09-16T11:06:06.933Z,100101.75
2022-09-16T11:08:51.668Z,100097.06
2022-09-16T11:11:37.641Z,100085.88
2022-09-16T11:14:25.665Z,100080.50
2022-09-16T11:17:15.288Z,100081.03
2022-09-16T11:20:04.769Z,100091.13
2022-09-16T11:22:54.096Z,100123.31
2022-09-16T11:25:41.509Z,100124.09
2022-09-16T11:28:32.887Z,100153.16
2022-09-16T11:31:34.938Z,100157.66
2022-09-16T11:34:16.592Z,100154.22
2022-09-16T11:36:49.085Z,100135.81
2022-09-16T11:39:49.529Z,100144.59
2022-09-16T11:42:34.369Z,100146.47
2022-09-16T11:45:19.137Z,100135.94
2022-09-16T11:47:56.874Z,100139.78
2022-09-16T11:50:49.421Z,100142.94
2022-09-16T11:53:35.006Z,100127.72
2022-09-16T11:56:10.821Z,100117.88
2022-09-16T11:58:49.018Z,100104.78
2022-09-16T12:01:46.710Z,100082.22
2022-09-16T12:04:38.399Z,100072.09
2022-09-16T12:07:17.963Z,100063.97
2022-09-16T12:09:57.583Z,100058.25
2022-09-16T12:12:29.540Z,100057.41
2022-09-16T12:15:05.967Z,100060.22
2022-09-16T12:17:37.078Z,100055.06
2022-09-16T12:20:14.465Z,100062.31
2022-09-16T12:23:30.219Z,100051.75
2022-09-16T12:26:07.032Z,100058.69
2022-09-16T12:28:55.354Z,100093.59
2022-09-16T12:31:36.491Z,100117.06
2022-09-16T12:34:27.670Z,100111.31
2022-09-16T12:37:22.640Z,100104.09
2022-09-16T12:39:50.308Z,100095.44
2022-09-16T12:42:47.569Z,100092.44
2022-09-16T12:45:51.095Z,100078.75
2022-09-16T12:48:38.900Z,100076.00
2022-09-16T12:51:30.354Z,100055.97
2022-09-16T12:54:20.441Z,100032.88
2022-09-16T12:57:15.852Z,100040.81
2022-09-16T12:59:52.403Z,100045.56
2022-09-16T13:02:22.660Z,100083.69
2022-09-16T13:04:53.173Z,100065.16
2022-09-16T13:07:27.364Z,100080.00
2022-09-16T13:10:01.670Z,100079.13
2022-09-16T13:12:40.977Z,100049.00
2022-09-16T13:15:27.162Z,100053.41
2022-09-16T13:17:54.295Z,100068.91
2022-09-16T13:20:33.499Z,100063.28
2022-09-16T13:23:07.343Z,100065.53
2022-09-16T13:25:44.799Z,100058.44
2022-09-16T13:28:39.123Z,100072.69
2022-09-16T13:31:11.679Z,100067.16
2022-09-16T13:33:45.278Z,100060.13
2022-09-16T13:36:31.876Z,100059.09
2022-09-16T13:39:01.886Z,100061.53
2022-09-16T13:41:48.702Z,100062.97
2022-09-16T13:44:33.509Z,100069.09
2022-09-16T13:47:09.222Z,100062.91
2022-09-16T13:49:47.568Z,100062.84
2022-09-16T13:52:21.131Z,100064.81
2022-09-16T13:55:10.101Z,100089.22
2022-09-16T13:58:10.831Z,100080.06
2022-09-16T14:00:49.671Z,100081.56
2022-09-16T14:03:29.218Z,100079.16
2022-09-16T14:05:58.635Z,100068.72
2022-09-16T14:08:53.207Z,100077.31
2022-09-16T14:11:31.670Z,100051.69
2022-09-16T14:14:06.239Z,100047.19
2022-09-16T14:16:34.794Z,100036.75
2022-09-16T14:19:19.942Z,100039.34
2022-09-16T14:21:46.797Z,100055.13
2022-09-16T14:24:19.452Z,100045.06
2022-09-16T14:26:53.463Z,100034.56
2022-09-16T14:29:20.775Z,100027.22
2022-09-16T14:31:48.240Z,100013.19
2022-09-16T14:34:36.266Z,100018.28
2022-09-16T14:37:05.410Z,100007.47
2022-09-16T14:39:32.720Z,100004.25
2022-09-16T14:42:07.283Z,99981.22
2022-09-16T14:44:45.463Z,99968.41
2022-09-16T14:47:29.458Z,99968.63
2022-09-16T14:50:07.701Z,99949.94
2022-09-16T14:52:35.797Z,99970.31
2022-09-16T14:55:02.235Z,99982.28
2022-09-16T14:57:30.716Z,99961.25
2022-09-16T14:59:59.238Z,99966.56
2022-09-16T15:02:34.248Z,99956.19
2022-09-16T15:05:33.168Z,99937.63
2022-09-16T15:08:14.208Z,99946.78
2022-09-16T15:12:46.584Z,99923.34
2022-09-16T15:13:36.511Z,99908.69
2022-09-16T15:16:16.110Z,99917.97
2022-09-16T15:18:52.485Z,99902.19
2022-09-16T15:21:26.476Z,99905.00
2022-09-16T15:23:56.589Z,99902.97
2022-09-16T15:26:26.413Z,99896.25
2022-09-16T15:31:46.600Z,99871.94
2022-09-16T15:34:19.125Z,99885.28
2022-09-16T15:36:47.522Z,99883.06
2022-09-16T15:39:31.835Z,99875.75
2022-09-16T15:42:18.077Z,99874.47
2022-09-16T15:44:48.971Z,99883.97
2022-09-16T15:47:33.991Z,99886.16
2022-09-16T15:50:05.305Z,99892.03
2022-09-16T15:52:34.899Z,99880.06
2022-09-16T15:55:06.027Z,99882.47
2022-09-16T15:57:38.148Z,99879.78
2022-09-16T16:00:15.811Z,99872.53
2022-09-16T16:02:50.489Z,99886.03
2022-09-16T16:05:21.339Z,99878.03
2022-09-16T16:07:51.605Z,99892.84
2022-09-16T16:10:32.907Z,99888.88
2022-09-16T16:13:01.187Z,99881.56
2022-09-16T16:15:36.451Z,99878.31
2022-09-16T16:18:05.670Z,99883.63
2022-09-16T16:20:34.108Z,99885.84
2022-09-16T16:23:01.629Z,99884.69
2022-09-16T16:25:28.885Z,99875.13
2022-09-16T16:27:55.517Z,99890.69
2022-09-16T16:30:22.011Z,99898.19
2022-09-16T16:32:48.810Z,99903.78
2022-09-16T16:35:15.328Z,99880.94
2022-09-16T16:37:46.457Z,99887.78
2022-09-16T16:40:15.026Z,99893.63
2022-09-16T16:42:43.301Z,99893.50
2022-09-16T16:45:12.072Z,99901.81
2022-09-16T16:47:38.395Z,99895.53
2022-09-16T16:50:05.128Z,99899.69
2022-09-16T16:52:31.476Z,99907.22
2022-09-16T16:54:57.958Z,99905.81
2022-09-16T16:57:24.390Z,99914.28
2022-09-16T16:59:51.866Z,99923.44
2022-09-16T17:02:18.295Z,99930.78
2022-09-16T17:04:44.644Z,99933.84
2022-09-16T17:07:27.901Z,99925.75
2022-09-16T17:09:55.788Z,99934.06
2022-09-16T17:12:22.260Z,99937.28
2022-09-16T17:14:48.658Z,99951.28
2022-09-16T17:17:15.293Z,99947.13
2022-09-16T17:19:41.651Z,99947.88
2022-09-16T17:22:08.095Z,99954.69
2022-09-16T17:24:34.814Z,99966.63
2022-09-16T17:27:01.920Z,99966.47
2022-09-16T17:29:28.348Z,99962.22
2022-09-16T17:31:57.017Z,99974.34
2022-09-16T17:34:23.717Z,99979.53
2022-09-16T17:36:50.192Z,99979.53
2022-09-16T17:39:18.813Z,99985.97
2022-09-16T17:41:47.442Z,99993.81
2022-09-16T17:44:14.486Z,99995.50
2022-09-16T17:46:42.662Z,99995.81
2022-09-16T17:49:23.766Z,100009.22
2022-09-16T17:51:51.824Z,100003.81
2022-09-16T17:54:18.545Z,100003.63
2022-09-16T17:56:45.228Z,100009.91
2022-09-16T17:59:13.168Z,100011.84
2022-09-16T18:01:39.913Z,100021.50
2022-09-16T18:04:07.019Z,100022.13
2022-09-16T18:06:39.910Z,100022.88
2022-09-16T18:09:09.453Z,100036.88
2022-09-16T18:11:36.986Z,100035.19
2022-09-16T18:14:06.308Z,100039.59
2022-09-16T18:16:32.895Z,100027.56
2022-09-16T18:19:01.439Z,100029.06
2022-09-16T18:21:30.121Z,100032.00
2022-09-16T18:24:02.325Z,100036.19
2022-09-16T18:26:29.651Z,100032.41
2022-09-16T18:29:16.170Z,100035.03
2022-09-16T18:31:45.257Z,100029.75
2022-09-16T18:34:12.714Z,100038.72
2022-09-16T18:36:39.736Z,100040.84
2022-09-16T18:39:10.028Z,100041.00
2022-09-16T18:41:38.564Z,100051.22
2022-09-16T18:44:10.351Z,100058.06
2022-09-16T18:46:37.802Z,100055.28
2022-09-16T18:49:05.838Z,100068.34
2022-09-16T18:51:36.894Z,100066.56
2022-09-16T18:54:10.576Z,100071.38
2022-09-16T18:56:38.816Z,100068.53
2022-09-16T18:59:26.139Z,100080.81
2022-09-16T19:01:54.699Z,100082.84
2022-09-16T19:04:23.598Z,100082.78
2022-09-16T19:06:53.143Z,100086.00
2022-09-16T19:09:21.983Z,100093.88
2022-09-16T19:11:49.458Z,100092.28
2022-09-16T19:14:16.306Z,100091.53
2022-09-16T19:16:44.580Z,100099.66
2022-09-16T19:19:13.848Z,100104.06
2022-09-16T19:21:41.972Z,100101.34
2022-09-16T19:24:13.921Z,100100.50
2022-09-16T19:26:42.171Z,100102.38
2022-09-16T19:29:09.763Z,100110.25
2022-09-16T19:31:39.214Z,100116.53
2022-09-16T19:34:06.700Z,100116.75
2022-09-16T19:36:34.612Z,100128.44
2022-09-16T19:39:01.702Z,100125.13
2022-09-16T19:41:34.755Z,100126.22
2022-09-16T19:44:04.392Z,100128.97
2022-09-16T19:46:34.649Z,100125.97
2022-09-16T19:49:01.389Z,100131.41
2022-09-16T19:51:28.312Z,100135.88
2022-09-16T19:53:55.062Z,100141.28
2022-09-16T19:56:27.009Z,100132.88
2022-09-16T19:58:54.525Z,100137.19
2022-09-16T20:01:27.107Z,100141.47
2022-09-16T20:03:54.466Z,100140.28
2022-09-16T20:06:41.247Z,100144.47
2022-09-16T20:09:12.692Z,100139.13
2022-09-16T20:11:41.965Z,100144.22
2022-09-16T20:14:14.346Z,100154.41
2022-09-16T20:16:40.958Z,100146.69
2022-09-16T20:19:12.533Z,100148.47
2022-09-16T20:21:39.299Z,100157.22
2022-09-16T20:24:07.846Z,100145.06
2022-09-16T20:26:35.523Z,100145.16
2022-09-16T20:29:02.662Z,100152.25
2022-09-16T20:31:32.499Z,100154.19
2022-09-16T20:33:59.730Z,100154.25
2022-09-16T20:36:29.752Z,100159.69
2022-09-16T20:38:56.851Z,100166.09
2022-09-16T20:41:24.979Z,100162.63
2022-09-16T20:43:52.749Z,100163.38
2022-09-16T20:46:22.147Z,100167.88
2022-09-16T20:48:49.106Z,100170.38
2022-09-16T20:51:18.272Z,100164.09
2022-09-16T20:53:53.943Z,100173.00
2022-09-16T20:56:21.165Z,100176.47
2022-09-16T20:58:48.148Z,100173.91
2022-09-16T21:01:19.137Z,100180.00
2022-09-16T21:03:49.886Z,100180.88
2022-09-16T21:06:16.248Z,100184.34
2022-09-16T21:08:43.720Z,100187.13
2022-09-16T21:11:13.177Z,100180.94
2022-09-16T21:13:41.316Z,100188.69
2022-09-16T21:16:09.529Z,100192.94
2022-09-16T21:18:36.002Z,100202.75
2022-09-16T21:21:07.939Z,100205.50
2022-09-16T21:23:35.110Z,100208.00
2022-09-16T21:26:04.154Z,100217.72
2022-09-16T21:28:31.689Z,100217.50
2022-09-16T21:31:02.329Z,100221.84
2022-09-16T21:33:30.739Z,100224.84
2022-09-16T21:35:57.092Z,100222.59
2022-09-16T21:38:24.562Z,100225.94
2022-09-16T21:40:55.974Z,100226.78
2022-09-16T21:43:26.404Z,100228.47
2022-09-16T21:45:53.801Z,100232.03
2022-09-16T21:48:20.898Z,100230.94
2022-09-16T21:50:48.388Z,100234.13
2022-09-16T21:53:15.285Z,100240.31
2022-09-16T21:55:41.963Z,100235.75
2022-09-16T21:58:08.869Z,100233.97
2022-09-16T22:00:36.506Z,100239.22
2022-09-16T22:03:02.938Z,100241.47
2022-09-16T22:05:30.373Z,100229.97
2022-09-16T22:07:57.048Z,100238.53
2022-09-16T22:10:23.460Z,100243.78
2022-09-16T22:12:49.898Z,100242.00
2022-09-16T22:15:16.746Z,100240.91
2022-09-16T22:17:43.442Z,100239.03
2022-09-16T22:20:11.620Z,100246.25
2022-09-16T22:22:39.117Z,100236.56
2022-09-16T22:25:05.639Z,100233.88
2022-09-16T22:27:33.008Z,100244.94
2022-09-16T22:29:59.542Z,100243.75
2022-09-16T22:32:27.009Z,100229.91
2022-09-16T22:34:53.527Z,100235.56
2022-09-16T22:37:19.959Z,100235.31
2022-09-16T22:39:46.332Z,100239.31
2022-09-16T22:42:12.836Z,100245.31
2022-09-16T22:44:39.179Z,100246.28
2022-09-16T22:47:05.808Z,100238.47
2022-09-16T22:49:32.137Z,100252.16
2022-09-16T22:51:58.586Z,100251.03
2022-09-16T22:54:24.971Z,100250.94
2022-09-16T22:56:51.470Z,100251.94
2022-09-16T22:59:20.081Z,100252.81
2022-09-16T23:01:47.248Z,100251.09
2022-09-16T23:04:13.715Z,100254.31
2022-09-16T23:06:41.170Z,100256.03
2022-09-16T23:09:08.784Z,100254.19
2022-09-16T23:11:36.033Z,100260.22
2022-09-16T23:14:04.034Z,100254.03
2022-09-16T23:16:35.784Z,100254.94
2022-09-16T23:19:05.332Z,100253.00
2022-09-16T23:21:32.417Z,100246.59
2022-09-16T23:24:01.259Z,100249.84
2022-09-16T23:26:33.457Z,100255.78
2022-09-16T23:29:01.904Z,100248.97
2022-09-16T23:31:31.077Z,100249.03
2022-09-16T23:33:58.144Z,100252.53
2022-09-16T23:36:26.029Z,100255.09
2022-09-16T23:38:53.820Z,100255.88
2022-09-16T23:41:22.992Z,100254.06
2022-09-16T23:43:50.169Z,100256.63
2022-09-16T23:46:19.845Z,100246.28
2022-09-16T23:48:47.225Z,100250.59
2022-09-16T23:51:13.971Z,100254.84
2022-09-16T23:53:42.208Z,100254.00
2022-09-16T23:56:11.515Z,100254.16
2022-09-16T23:58:38.464Z,100253.31
